sensor_id;sensor_type;location;lat;lon;timestamp;P1;durP1;ratioP1;P2;durP2;ratioP2
31730;SDS011;18310;55.586;12.286;2023-06-22T00:02:42;5.78;;;3.10;;
31730;SDS011;18310;55.586;12.286;2023-06-22T00:05:46;9.30;;;3.75;;
31730;SDS011;18310;55.586;12.286;2023-06-22T00:08:52;5.85;;;3.20;;
31730;SDS011;18310;55.586;12.286;2023-06-22T00:11:58;5.70;;;3.38;;
31730;SDS011;18310;55.586;12.286;2023-06-22T00:15:04;7.47;;;3.03;;
31730;SDS011;18310;55.586;12.286;2023-06-22T00:18:10;4.60;;;3.22;;
31730;SDS011;18310;55.586;12.286;2023-06-22T00:21:16;5.88;;;2.97;;
31730;SDS011;18310;55.586;12.286;2023-06-22T00:24:23;7.53;;;3.90;;
31730;SDS011;18310;55.586;12.286;2023-06-22T00:27:27;6.25;;;3.13;;
31730;SDS011;18310;55.586;12.286;2023-06-22T00:30:32;4.40;;;3.03;;
31730;SDS011;18310;55.586;12.286;2023-06-22T00:34:00;4.97;;;2.97;;
31730;SDS011;18310;55.586;12.286;2023-06-22T00:37:03;5.85;;;3.20;;
31730;SDS011;18310;55.586;12.286;2023-06-22T00:40:09;8.35;;;3.22;;
31730;SDS011;18310;55.586;12.286;2023-06-22T00:43:13;5.00;;;2.70;;
31730;SDS011;18310;55.586;12.286;2023-06-22T00:46:17;7.90;;;4.07;;
31730;SDS011;18310;55.586;12.286;2023-06-22T00:49:22;7.03;;;3.10;;
31730;SDS011;18310;55.586;12.286;2023-06-22T00:52:26;7.32;;;3.22;;
31730;SDS011;18310;55.586;12.286;2023-06-22T00:55:32;5.60;;;3.25;;
31730;SDS011;18310;55.586;12.286;2023-06-22T00:58:37;6.80;;;3.67;;
31730;SDS011;18310;55.586;12.286;2023-06-22T01:01:43;9.90;;;4.00;;
31730;SDS011;18310;55.586;12.286;2023-06-22T01:04:49;21.92;;;4.28;;
31730;SDS011;18310;55.586;12.286;2023-06-22T01:07:56;9.63;;;3.83;;
31730;SDS011;18310;55.586;12.286;2023-06-22T01:11:30;7.10;;;3.60;;
31730;SDS011;18310;55.586;12.286;2023-06-22T01:14:40;5.88;;;3.60;;
31730;SDS011;18310;55.586;12.286;2023-06-22T01:17:46;12.57;;;3.63;;
31730;SDS011;18310;55.586;12.286;2023-06-22T01:20:52;7.25;;;3.15;;
31730;SDS011;18310;55.586;12.286;2023-06-22T01:23:59;7.47;;;3.78;;
31730;SDS011;18310;55.586;12.286;2023-06-22T01:27:18;6.00;;;3.17;;
31730;SDS011;18310;55.586;12.286;2023-06-22T01:30:35;6.28;;;4.13;;
31730;SDS011;18310;55.586;12.286;2023-06-22T01:33:42;7.57;;;4.22;;
31730;SDS011;18310;55.586;12.286;2023-06-22T01:36:46;8.10;;;3.83;;
31730;SDS011;18310;55.586;12.286;2023-06-22T01:42:54;7.10;;;3.67;;
31730;SDS011;18310;55.586;12.286;2023-06-22T01:46:00;7.03;;;3.53;;
31730;SDS011;18310;55.586;12.286;2023-06-22T01:49:04;6.20;;;4.05;;
31730;SDS011;18310;55.586;12.286;2023-06-22T01:52:09;6.07;;;3.47;;
31730;SDS011;18310;55.586;12.286;2023-06-22T01:55:12;8.80;;;3.97;;
31730;SDS011;18310;55.586;12.286;2023-06-22T01:58:40;7.57;;;3.70;;
31730;SDS011;18310;55.586;12.286;2023-06-22T02:01:53;7.85;;;3.88;;
31730;SDS011;18310;55.586;12.286;2023-06-22T02:05:02;6.95;;;3.28;;
31730;SDS011;18310;55.586;12.286;2023-06-22T02:08:08;7.57;;;3.92;;
31730;SDS011;18310;55.586;12.286;2023-06-22T02:11:14;6.85;;;3.55;;
31730;SDS011;18310;55.586;12.286;2023-06-22T02:14:21;6.57;;;3.72;;
31730;SDS011;18310;55.586;12.286;2023-06-22T02:17:25;9.52;;;4.18;;
31730;SDS011;18310;55.586;12.286;2023-06-22T02:20:29;7.60;;;4.22;;
31730;SDS011;18310;55.586;12.286;2023-06-22T02:23:32;6.75;;;3.80;;
31730;SDS011;18310;55.586;12.286;2023-06-22T02:26:37;8.18;;;3.53;;
31730;SDS011;18310;55.586;12.286;2023-06-22T02:29:45;11.40;;;4.05;;
31730;SDS011;18310;55.586;12.286;2023-06-22T02:32:49;6.72;;;3.85;;
31730;SDS011;18310;55.586;12.286;2023-06-22T02:36:01;7.55;;;3.95;;
31730;SDS011;18310;55.586;12.286;2023-06-22T02:39:06;6.53;;;3.88;;
31730;SDS011;18310;55.586;12.286;2023-06-22T02:42:10;5.80;;;3.40;;
31730;SDS011;18310;55.586;12.286;2023-06-22T02:45:15;6.20;;;3.60;;
31730;SDS011;18310;55.586;12.286;2023-06-22T02:48:18;7.85;;;4.15;;
31730;SDS011;18310;55.586;12.286;2023-06-22T02:51:21;7.73;;;3.70;;
31730;SDS011;18310;55.586;12.286;2023-06-22T02:54:25;7.50;;;4.10;;
31730;SDS011;18310;55.586;12.286;2023-06-22T03:00:34;7.05;;;4.10;;
31730;SDS011;18310;55.586;12.286;2023-06-22T03:03:38;7.20;;;4.20;;
31730;SDS011;18310;55.586;12.286;2023-06-22T03:06:42;9.05;;;4.65;;
31730;SDS011;18310;55.586;12.286;2023-06-22T03:09:45;7.90;;;4.50;;
31730;SDS011;18310;55.586;12.286;2023-06-22T03:12:48;10.03;;;4.67;;
31730;SDS011;18310;55.586;12.286;2023-06-22T03:15:54;5.47;;;3.67;;
31730;SDS011;18310;55.586;12.286;2023-06-22T03:18:57;9.68;;;4.75;;
31730;SDS011;18310;55.586;12.286;2023-06-22T03:22:01;7.57;;;4.73;;
31730;SDS011;18310;55.586;12.286;2023-06-22T03:25:05;10.07;;;4.27;;
31730;SDS011;18310;55.586;12.286;2023-06-22T03:28:12;7.45;;;4.45;;
31730;SDS011;18310;55.586;12.286;2023-06-22T03:31:17;8.00;;;3.97;;
31730;SDS011;18310;55.586;12.286;2023-06-22T03:34:23;7.88;;;4.25;;
31730;SDS011;18310;55.586;12.286;2023-06-22T03:37:27;8.07;;;3.90;;
31730;SDS011;18310;55.586;12.286;2023-06-22T03:40:31;7.57;;;3.97;;
31730;SDS011;18310;55.586;12.286;2023-06-22T03:43:34;6.73;;;4.53;;
31730;SDS011;18310;55.586;12.286;2023-06-22T03:46:39;7.33;;;3.90;;
31730;SDS011;18310;55.586;12.286;2023-06-22T03:49:42;8.70;;;4.75;;
31730;SDS011;18310;55.586;12.286;2023-06-22T03:52:45;11.23;;;4.40;;
31730;SDS011;18310;55.586;12.286;2023-06-22T03:55:49;9.57;;;4.72;;
31730;SDS011;18310;55.586;12.286;2023-06-22T03:58:54;9.15;;;4.60;;
31730;SDS011;18310;55.586;12.286;2023-06-22T04:01:59;9.50;;;4.93;;
31730;SDS011;18310;55.586;12.286;2023-06-22T04:05:03;8.90;;;5.20;;
31730;SDS011;18310;55.586;12.286;2023-06-22T04:08:08;8.60;;;4.63;;
31730;SDS011;18310;55.586;12.286;2023-06-22T04:11:11;13.40;;;5.07;;
31730;SDS011;18310;55.586;12.286;2023-06-22T04:14:15;10.07;;;4.77;;
31730;SDS011;18310;55.586;12.286;2023-06-22T04:17:20;10.70;;;5.18;;
31730;SDS011;18310;55.586;12.286;2023-06-22T04:20:27;9.07;;;4.93;;
31730;SDS011;18310;55.586;12.286;2023-06-22T04:23:32;7.63;;;4.55;;
31730;SDS011;18310;55.586;12.286;2023-06-22T04:26:35;8.00;;;4.35;;
31730;SDS011;18310;55.586;12.286;2023-06-22T04:29:39;9.60;;;4.65;;
31730;SDS011;18310;55.586;12.286;2023-06-22T04:32:52;9.82;;;4.32;;
31730;SDS011;18310;55.586;12.286;2023-06-22T04:36:00;7.85;;;3.60;;
31730;SDS011;18310;55.586;12.286;2023-06-22T04:39:05;8.75;;;4.05;;
31730;SDS011;18310;55.586;12.286;2023-06-22T04:42:12;9.85;;;3.60;;
31730;SDS011;18310;55.586;12.286;2023-06-22T04:45:15;6.13;;;3.58;;
31730;SDS011;18310;55.586;12.286;2023-06-22T04:48:20;9.13;;;3.60;;
31730;SDS011;18310;55.586;12.286;2023-06-22T04:51:24;7.80;;;3.65;;
31730;SDS011;18310;55.586;12.286;2023-06-22T04:54:33;5.65;;;3.08;;
31730;SDS011;18310;55.586;12.286;2023-06-22T04:57:38;8.60;;;3.72;;
31730;SDS011;18310;55.586;12.286;2023-06-22T05:00:42;7.65;;;4.80;;
31730;SDS011;18310;55.586;12.286;2023-06-22T05:03:48;10.00;;;3.92;;
31730;SDS011;18310;55.586;12.286;2023-06-22T05:06:52;8.93;;;4.15;;
31730;SDS011;18310;55.586;12.286;2023-06-22T05:09:56;5.15;;;3.15;;
31730;SDS011;18310;55.586;12.286;2023-06-22T05:13:00;9.93;;;3.83;;
31730;SDS011;18310;55.586;12.286;2023-06-22T05:16:04;8.05;;;3.20;;
31730;SDS011;18310;55.586;12.286;2023-06-22T05:19:10;4.78;;;2.72;;
31730;SDS011;18310;55.586;12.286;2023-06-22T05:22:14;9.48;;;3.47;;
31730;SDS011;18310;55.586;12.286;2023-06-22T05:28:06;9.55;;;3.58;;
31730;SDS011;18310;55.586;12.286;2023-06-22T05:31:13;7.07;;;3.08;;
31730;SDS011;18310;55.586;12.286;2023-06-22T05:34:20;5.38;;;2.97;;
31730;SDS011;18310;55.586;12.286;2023-06-22T05:37:25;8.25;;;3.35;;
31730;SDS011;18310;55.586;12.286;2023-06-22T05:40:28;7.00;;;3.20;;
31730;SDS011;18310;55.586;12.286;2023-06-22T05:43:34;5.80;;;2.90;;
31730;SDS011;18310;55.586;12.286;2023-06-22T05:46:40;6.07;;;2.97;;
31730;SDS011;18310;55.586;12.286;2023-06-22T05:49:46;6.65;;;2.75;;
31730;SDS011;18310;55.586;12.286;2023-06-22T05:53:29;6.72;;;2.28;;
31730;SDS011;18310;55.586;12.286;2023-06-22T05:56:32;8.10;;;2.80;;
31730;SDS011;18310;55.586;12.286;2023-06-22T05:59:36;8.73;;;2.53;;
31730;SDS011;18310;55.586;12.286;2023-06-22T06:05:46;9.20;;;2.80;;
31730;SDS011;18310;55.586;12.286;2023-06-22T06:08:51;7.50;;;2.60;;
31730;SDS011;18310;55.586;12.286;2023-06-22T06:11:56;6.22;;;2.70;;
31730;SDS011;18310;55.586;12.286;2023-06-22T06:15:00;8.52;;;2.58;;
31730;SDS011;18310;55.586;12.286;2023-06-22T06:18:05;6.10;;;2.60;;
31730;SDS011;18310;55.586;12.286;2023-06-22T06:21:09;4.50;;;2.67;;
31730;SDS011;18310;55.586;12.286;2023-06-22T06:24:14;5.55;;;3.10;;
31730;SDS011;18310;55.586;12.286;2023-06-22T06:27:18;9.02;;;2.28;;
31730;SDS011;18310;55.586;12.286;2023-06-22T06:30:22;6.22;;;2.35;;
31730;SDS011;18310;55.586;12.286;2023-06-22T06:33:26;6.35;;;2.55;;
31730;SDS011;18310;55.586;12.286;2023-06-22T06:36:30;4.25;;;2.20;;
31730;SDS011;18310;55.586;12.286;2023-06-22T06:39:35;9.15;;;2.63;;
31730;SDS011;18310;55.586;12.286;2023-06-22T06:42:38;5.43;;;2.30;;
31730;SDS011;18310;55.586;12.286;2023-06-22T06:45:44;13.20;;;2.95;;
31730;SDS011;18310;55.586;12.286;2023-06-22T06:48:47;6.90;;;2.20;;
31730;SDS011;18310;55.586;12.286;2023-06-22T06:55:18;6.05;;;2.22;;
31730;SDS011;18310;55.586;12.286;2023-06-22T06:58:24;6.22;;;2.67;;
31730;SDS011;18310;55.586;12.286;2023-06-22T07:01:33;4.72;;;2.45;;
31730;SDS011;18310;55.586;12.286;2023-06-22T07:04:38;6.65;;;2.67;;
31730;SDS011;18310;55.586;12.286;2023-06-22T07:10:47;4.47;;;2.50;;
31730;SDS011;18310;55.586;12.286;2023-06-22T07:13:52;6.10;;;3.17;;
31730;SDS011;18310;55.586;12.286;2023-06-22T07:17:07;9.73;;;2.72;;
31730;SDS011;18310;55.586;12.286;2023-06-22T07:20:14;5.45;;;2.40;;
31730;SDS011;18310;55.586;12.286;2023-06-22T07:23:17;5.05;;;2.13;;
31730;SDS011;18310;55.586;12.286;2023-06-22T07:26:22;10.82;;;2.70;;
31730;SDS011;18310;55.586;12.286;2023-06-22T07:29:25;7.72;;;2.17;;
31730;SDS011;18310;55.586;12.286;2023-06-22T07:32:29;5.47;;;2.25;;
31730;SDS011;18310;55.586;12.286;2023-06-22T07:35:32;4.13;;;2.10;;
31730;SDS011;18310;55.586;12.286;2023-06-22T07:38:35;5.07;;;2.08;;
31730;SDS011;18310;55.586;12.286;2023-06-22T07:41:40;3.47;;;1.88;;
31730;SDS011;18310;55.586;12.286;2023-06-22T07:44:44;3.83;;;2.25;;
31730;SDS011;18310;55.586;12.286;2023-06-22T07:47:48;6.32;;;2.13;;
31730;SDS011;18310;55.586;12.286;2023-06-22T07:50:52;5.57;;;1.98;;
31730;SDS011;18310;55.586;12.286;2023-06-22T07:53:55;4.38;;;2.05;;
31730;SDS011;18310;55.586;12.286;2023-06-22T07:57:01;5.65;;;2.10;;
31730;SDS011;18310;55.586;12.286;2023-06-22T08:01:32;8.05;;;2.20;;
31730;SDS011;18310;55.586;12.286;2023-06-22T08:04:37;4.30;;;1.90;;
31730;SDS011;18310;55.586;12.286;2023-06-22T08:07:42;9.05;;;2.22;;
31730;SDS011;18310;55.586;12.286;2023-06-22T08:10:51;4.28;;;2.13;;
31730;SDS011;18310;55.586;12.286;2023-06-22T08:13:55;5.03;;;2.13;;
31730;SDS011;18310;55.586;12.286;2023-06-22T08:17:02;5.97;;;1.92;;
31730;SDS011;18310;55.586;12.286;2023-06-22T08:20:06;6.15;;;2.22;;
31730;SDS011;18310;55.586;12.286;2023-06-22T08:23:14;6.28;;;2.10;;
31730;SDS011;18310;55.586;12.286;2023-06-22T08:26:18;7.90;;;2.08;;
31730;SDS011;18310;55.586;12.286;2023-06-22T08:29:22;4.28;;;2.15;;
31730;SDS011;18310;55.586;12.286;2023-06-22T08:32:26;4.07;;;1.67;;
31730;SDS011;18310;55.586;12.286;2023-06-22T08:35:31;7.00;;;1.70;;
31730;SDS011;18310;55.586;12.286;2023-06-22T08:41:38;4.72;;;1.98;;
31730;SDS011;18310;55.586;12.286;2023-06-22T08:44:42;6.25;;;2.40;;
31730;SDS011;18310;55.586;12.286;2023-06-22T08:47:47;8.77;;;1.83;;
31730;SDS011;18310;55.586;12.286;2023-06-22T08:50:51;3.83;;;1.88;;
31730;SDS011;18310;55.586;12.286;2023-06-22T08:53:56;4.95;;;1.75;;
31730;SDS011;18310;55.586;12.286;2023-06-22T09:00:05;5.13;;;1.83;;
31730;SDS011;18310;55.586;12.286;2023-06-22T09:03:20;5.18;;;1.50;;
31730;SDS011;18310;55.586;12.286;2023-06-22T09:06:29;7.70;;;1.60;;
31730;SDS011;18310;55.586;12.286;2023-06-22T09:09:34;7.38;;;1.98;;
31730;SDS011;18310;55.586;12.286;2023-06-22T09:12:38;3.50;;;1.70;;
31730;SDS011;18310;55.586;12.286;2023-06-22T09:15:42;3.08;;;1.63;;
31730;SDS011;18310;55.586;12.286;2023-06-22T09:18:48;4.35;;;1.77;;
31730;SDS011;18310;55.586;12.286;2023-06-22T09:21:53;5.72;;;2.00;;
31730;SDS011;18310;55.586;12.286;2023-06-22T09:24:57;6.60;;;2.35;;
31730;SDS011;18310;55.586;12.286;2023-06-22T09:28:02;3.45;;;1.65;;
31730;SDS011;18310;55.586;12.286;2023-06-22T09:31:05;3.40;;;1.88;;
31730;SDS011;18310;55.586;12.286;2023-06-22T09:34:11;3.63;;;1.65;;
31730;SDS011;18310;55.586;12.286;2023-06-22T09:37:16;4.72;;;2.25;;
31730;SDS011;18310;55.586;12.286;2023-06-22T09:40:19;4.40;;;2.47;;
31730;SDS011;18310;55.586;12.286;2023-06-22T09:43:23;4.15;;;2.00;;
31730;SDS011;18310;55.586;12.286;2023-06-22T09:46:26;4.68;;;2.10;;
31730;SDS011;18310;55.586;12.286;2023-06-22T09:49:32;8.02;;;2.20;;
31730;SDS011;18310;55.586;12.286;2023-06-22T09:52:49;4.03;;;2.00;;
31730;SDS011;18310;55.586;12.286;2023-06-22T09:56:18;3.72;;;1.95;;
31730;SDS011;18310;55.586;12.286;2023-06-22T09:59:24;3.58;;;1.90;;
31730;SDS011;18310;55.586;12.286;2023-06-22T10:02:31;5.13;;;1.90;;
31730;SDS011;18310;55.586;12.286;2023-06-22T10:05:51;5.20;;;2.30;;
31730;SDS011;18310;55.586;12.286;2023-06-22T10:08:54;3.38;;;2.08;;
31730;SDS011;18310;55.586;12.286;2023-06-22T10:12:00;4.43;;;2.10;;
31730;SDS011;18310;55.586;12.286;2023-06-22T10:15:05;4.03;;;1.80;;
31730;SDS011;18310;55.586;12.286;2023-06-22T10:18:09;3.10;;;2.15;;
31730;SDS011;18310;55.586;12.286;2023-06-22T10:21:14;3.33;;;1.77;;
31730;SDS011;18310;55.586;12.286;2023-06-22T10:27:45;3.95;;;2.00;;
31730;SDS011;18310;55.586;12.286;2023-06-22T10:30:49;2.90;;;1.70;;
31730;SDS011;18310;55.586;12.286;2023-06-22T10:33:53;3.58;;;1.70;;
31730;SDS011;18310;55.586;12.286;2023-06-22T10:37:00;2.70;;;1.50;;
31730;SDS011;18310;55.586;12.286;2023-06-22T10:40:04;5.22;;;1.40;;
31730;SDS011;18310;55.586;12.286;2023-06-22T10:43:11;3.90;;;1.70;;
31730;SDS011;18310;55.586;12.286;2023-06-22T10:46:15;3.92;;;1.75;;
31730;SDS011;18310;55.586;12.286;2023-06-22T10:52:22;2.77;;;1.60;;
31730;SDS011;18310;55.586;12.286;2023-06-22T10:55:26;2.50;;;1.50;;
31730;SDS011;18310;55.586;12.286;2023-06-22T10:58:49;3.28;;;1.85;;
31730;SDS011;18310;55.586;12.286;2023-06-22T11:01:55;4.00;;;1.48;;
31730;SDS011;18310;55.586;12.286;2023-06-22T11:04:59;3.80;;;1.50;;
31730;SDS011;18310;55.586;12.286;2023-06-22T11:08:03;2.88;;;1.52;;
31730;SDS011;18310;55.586;12.286;2023-06-22T11:14:12;2.95;;;1.60;;
31730;SDS011;18310;55.586;12.286;2023-06-22T11:17:17;4.57;;;1.90;;
31730;SDS011;18310;55.586;12.286;2023-06-22T11:20:21;2.70;;;1.58;;
31730;SDS011;18310;55.586;12.286;2023-06-22T11:23:26;26.92;;;3.97;;
31730;SDS011;18310;55.586;12.286;2023-06-22T11:26:31;4.75;;;2.30;;
31730;SDS011;18310;55.586;12.286;2023-06-22T11:29:36;4.00;;;1.40;;
31730;SDS011;18310;55.586;12.286;2023-06-22T11:32:41;2.67;;;1.40;;
31730;SDS011;18310;55.586;12.286;2023-06-22T11:35:45;3.63;;;1.65;;
31730;SDS011;18310;55.586;12.286;2023-06-22T11:38:49;5.43;;;1.55;;
31730;SDS011;18310;55.586;12.286;2023-06-22T11:41:56;4.30;;;1.98;;
31730;SDS011;18310;55.586;12.286;2023-06-22T11:45:02;10.10;;;1.75;;
31730;SDS011;18310;55.586;12.286;2023-06-22T11:48:09;3.92;;;1.55;;
31730;SDS011;18310;55.586;12.286;2023-06-22T11:51:13;2.90;;;1.40;;
31730;SDS011;18310;55.586;12.286;2023-06-22T11:54:17;3.15;;;1.50;;
31730;SDS011;18310;55.586;12.286;2023-06-22T11:57:21;8.27;;;2.00;;
31730;SDS011;18310;55.586;12.286;2023-06-22T12:00:27;3.55;;;1.30;;
31730;SDS011;18310;55.586;12.286;2023-06-22T12:03:31;5.90;;;1.63;;
31730;SDS011;18310;55.586;12.286;2023-06-22T12:06:35;2.83;;;1.27;;
31730;SDS011;18310;55.586;12.286;2023-06-22T12:09:43;3.40;;;1.85;;
31730;SDS011;18310;55.586;12.286;2023-06-22T12:12:47;5.03;;;1.65;;
31730;SDS011;18310;55.586;12.286;2023-06-22T12:15:52;2.78;;;1.65;;
31730;SDS011;18310;55.586;12.286;2023-06-22T12:18:57;3.58;;;1.30;;
31730;SDS011;18310;55.586;12.286;2023-06-22T12:22:00;4.22;;;1.40;;
31730;SDS011;18310;55.586;12.286;2023-06-22T12:25:04;3.80;;;1.58;;
31730;SDS011;18310;55.586;12.286;2023-06-22T12:28:08;11.55;;;1.50;;
31730;SDS011;18310;55.586;12.286;2023-06-22T12:31:14;7.03;;;1.80;;
31730;SDS011;18310;55.586;12.286;2023-06-22T12:34:18;5.65;;;1.90;;
31730;SDS011;18310;55.586;12.286;2023-06-22T12:37:21;3.00;;;1.50;;
31730;SDS011;18310;55.586;12.286;2023-06-22T12:40:25;4.38;;;2.13;;
31730;SDS011;18310;55.586;12.286;2023-06-22T12:43:30;3.72;;;1.60;;
31730;SDS011;18310;55.586;12.286;2023-06-22T12:46:36;2.72;;;1.52;;
31730;SDS011;18310;55.586;12.286;2023-06-22T12:49:40;3.63;;;1.73;;
31730;SDS011;18310;55.586;12.286;2023-06-22T12:52:44;5.57;;;1.50;;
31730;SDS011;18310;55.586;12.286;2023-06-22T12:55:47;3.65;;;1.50;;
31730;SDS011;18310;55.586;12.286;2023-06-22T12:58:51;2.78;;;1.58;;
31730;SDS011;18310;55.586;12.286;2023-06-22T13:02:06;3.20;;;1.80;;
31730;SDS011;18310;55.586;12.286;2023-06-22T13:05:11;2.47;;;1.40;;
31730;SDS011;18310;55.586;12.286;2023-06-22T13:08:23;2.90;;;1.48;;
31730;SDS011;18310;55.586;12.286;2023-06-22T13:11:47;3.40;;;1.60;;
31730;SDS011;18310;55.586;12.286;2023-06-22T13:14:51;10.13;;;2.63;;
31730;SDS011;18310;55.586;12.286;2023-06-22T13:17:57;6.10;;;1.50;;
31730;SDS011;18310;55.586;12.286;2023-06-22T13:21:01;3.55;;;1.65;;
31730;SDS011;18310;55.586;12.286;2023-06-22T13:24:06;3.65;;;1.67;;
31730;SDS011;18310;55.586;12.286;2023-06-22T13:27:10;3.95;;;1.63;;
31730;SDS011;18310;55.586;12.286;2023-06-22T13:30:14;3.95;;;1.70;;
31730;SDS011;18310;55.586;12.286;2023-06-22T13:33:19;5.78;;;1.80;;
31730;SDS011;18310;55.586;12.286;2023-06-22T13:36:23;3.05;;;1.60;;
31730;SDS011;18310;55.586;12.286;2023-06-22T13:39:26;3.58;;;1.80;;
31730;SDS011;18310;55.586;12.286;2023-06-22T13:45:33;4.17;;;1.53;;
31730;SDS011;18310;55.586;12.286;2023-06-22T13:48:40;4.68;;;1.52;;
31730;SDS011;18310;55.586;12.286;2023-06-22T13:52:03;2.30;;;1.40;;
31730;SDS011;18310;55.586;12.286;2023-06-22T13:55:12;3.15;;;1.33;;
31730;SDS011;18310;55.586;12.286;2023-06-22T13:58:16;5.93;;;1.75;;
31730;SDS011;18310;55.586;12.286;2023-06-22T14:01:22;3.90;;;1.63;;
31730;SDS011;18310;55.586;12.286;2023-06-22T14:04:32;5.30;;;1.42;;
31730;SDS011;18310;55.586;12.286;2023-06-22T14:07:40;2.78;;;1.13;;
31730;SDS011;18310;55.586;12.286;2023-06-22T14:10:44;4.18;;;1.65;;
31730;SDS011;18310;55.586;12.286;2023-06-22T14:13:47;4.80;;;1.40;;
31730;SDS011;18310;55.586;12.286;2023-06-22T14:20:04;2.80;;;1.15;;
31730;SDS011;18310;55.586;12.286;2023-06-22T14:23:12;3.17;;;1.52;;
31730;SDS011;18310;55.586;12.286;2023-06-22T14:26:20;3.38;;;1.58;;
31730;SDS011;18310;55.586;12.286;2023-06-22T14:29:25;4.93;;;1.90;;
31730;SDS011;18310;55.586;12.286;2023-06-22T14:32:31;2.83;;;1.50;;
31730;SDS011;18310;55.586;12.286;2023-06-22T14:35:36;2.53;;;1.40;;
31730;SDS011;18310;55.586;12.286;2023-06-22T14:38:41;4.00;;;1.60;;
31730;SDS011;18310;55.586;12.286;2023-06-22T14:41:45;2.83;;;1.65;;
31730;SDS011;18310;55.586;12.286;2023-06-22T14:44:48;4.47;;;1.40;;
31730;SDS011;18310;55.586;12.286;2023-06-22T14:47:52;3.70;;;1.60;;
31730;SDS011;18310;55.586;12.286;2023-06-22T14:50:56;2.97;;;1.42;;
31730;SDS011;18310;55.586;12.286;2023-06-22T14:54:01;2.65;;;1.33;;
31730;SDS011;18310;55.586;12.286;2023-06-22T14:57:06;6.60;;;2.25;;
31730;SDS011;18310;55.586;12.286;2023-06-22T15:00:12;3.05;;;1.60;;
31730;SDS011;18310;55.586;12.286;2023-06-22T15:03:16;3.33;;;1.50;;
31730;SDS011;18310;55.586;12.286;2023-06-22T15:06:24;3.45;;;1.55;;
31730;SDS011;18310;55.586;12.286;2023-06-22T15:09:31;3.47;;;1.60;;
31730;SDS011;18310;55.586;12.286;2023-06-22T15:12:37;3.45;;;1.25;;
31730;SDS011;18310;55.586;12.286;2023-06-22T15:15:43;2.72;;;1.58;;
31730;SDS011;18310;55.586;12.286;2023-06-22T15:19:01;3.65;;;2.33;;
31730;SDS011;18310;55.586;12.286;2023-06-22T15:25:11;3.35;;;2.00;;
31730;SDS011;18310;55.586;12.286;2023-06-22T15:28:15;2.90;;;1.50;;
31730;SDS011;18310;55.586;12.286;2023-06-22T15:31:18;4.15;;;1.55;;
31730;SDS011;18310;55.586;12.286;2023-06-22T15:34:22;4.60;;;2.60;;
31730;SDS011;18310;55.586;12.286;2023-06-22T15:37:26;5.72;;;1.60;;
31730;SDS011;18310;55.586;12.286;2023-06-22T15:40:31;4.28;;;1.50;;
31730;SDS011;18310;55.586;12.286;2023-06-22T15:43:35;3.53;;;1.83;;
31730;SDS011;18310;55.586;12.286;2023-06-22T15:49:42;2.63;;;1.58;;
31730;SDS011;18310;55.586;12.286;2023-06-22T15:52:47;7.38;;;1.90;;
31730;SDS011;18310;55.586;12.286;2023-06-22T15:56:02;3.80;;;2.00;;
31730;SDS011;18310;55.586;12.286;2023-06-22T15:59:06;3.40;;;2.00;;
31730;SDS011;18310;55.586;12.286;2023-06-22T16:02:09;3.95;;;1.63;;
31730;SDS011;18310;55.586;12.286;2023-06-22T16:05:13;4.85;;;1.85;;
31730;SDS011;18310;55.586;12.286;2023-06-22T16:08:16;5.88;;;1.40;;
31730;SDS011;18310;55.586;12.286;2023-06-22T16:11:22;5.75;;;1.88;;
31730;SDS011;18310;55.586;12.286;2023-06-22T16:14:25;4.05;;;1.90;;
31730;SDS011;18310;55.586;12.286;2023-06-22T16:17:29;6.85;;;1.90;;
31730;SDS011;18310;55.586;12.286;2023-06-22T16:20:33;4.00;;;1.60;;
31730;SDS011;18310;55.586;12.286;2023-06-22T16:23:36;2.97;;;1.70;;
31730;SDS011;18310;55.586;12.286;2023-06-22T16:26:42;5.40;;;1.77;;
31730;SDS011;18310;55.586;12.286;2023-06-22T16:29:49;2.92;;;1.40;;
31730;SDS011;18310;55.586;12.286;2023-06-22T16:32:54;4.60;;;1.83;;
31730;SDS011;18310;55.586;12.286;2023-06-22T16:36:01;2.55;;;1.38;;
31730;SDS011;18310;55.586;12.286;2023-06-22T16:39:05;2.60;;;1.17;;
31730;SDS011;18310;55.586;12.286;2023-06-22T16:42:12;4.03;;;1.73;;
31730;SDS011;18310;55.586;12.286;2023-06-22T16:45:17;2.90;;;1.38;;
31730;SDS011;18310;55.586;12.286;2023-06-22T16:48:21;3.22;;;1.70;;
31730;SDS011;18310;55.586;12.286;2023-06-22T16:51:25;2.80;;;1.60;;
31730;SDS011;18310;55.586;12.286;2023-06-22T16:56:51;2.17;;;1.30;;
31730;SDS011;18310;55.586;12.286;2023-06-22T17:04:06;3.03;;;1.60;;
31730;SDS011;18310;55.586;12.286;2023-06-22T17:07:14;3.50;;;1.70;;
31730;SDS011;18310;55.586;12.286;2023-06-22T17:10:21;3.08;;;1.90;;
31730;SDS011;18310;55.586;12.286;2023-06-22T17:16:43;2.40;;;1.48;;
31730;SDS011;18310;55.586;12.286;2023-06-22T17:19:53;3.75;;;1.70;;
31730;SDS011;18310;55.586;12.286;2023-06-22T17:23:00;5.22;;;1.60;;
31730;SDS011;18310;55.586;12.286;2023-06-22T17:26:06;3.25;;;1.80;;
31730;SDS011;18310;55.586;12.286;2023-06-22T17:29:10;3.00;;;1.70;;
31730;SDS011;18310;55.586;12.286;2023-06-22T17:32:14;7.75;;;1.85;;
31730;SDS011;18310;55.586;12.286;2023-06-22T17:35:28;2.83;;;1.48;;
31730;SDS011;18310;55.586;12.286;2023-06-22T17:38:35;3.80;;;1.95;;
31730;SDS011;18310;55.586;12.286;2023-06-22T17:41:39;2.65;;;1.27;;
31730;SDS011;18310;55.586;12.286;2023-06-22T17:44:49;4.53;;;1.60;;
31730;SDS011;18310;55.586;12.286;2023-06-22T17:47:54;3.47;;;1.50;;
31730;SDS011;18310;55.586;12.286;2023-06-22T17:51:07;4.03;;;1.85;;
31730;SDS011;18310;55.586;12.286;2023-06-22T17:54:13;3.20;;;1.98;;
31730;SDS011;18310;55.586;12.286;2023-06-22T17:57:18;3.75;;;1.85;;
31730;SDS011;18310;55.586;12.286;2023-06-22T18:00:30;6.57;;;1.80;;
31730;SDS011;18310;55.586;12.286;2023-06-22T18:03:34;3.58;;;1.80;;
31730;SDS011;18310;55.586;12.286;2023-06-22T18:06:42;3.05;;;1.75;;
31730;SDS011;18310;55.586;12.286;2023-06-22T18:09:48;5.38;;;2.15;;
31730;SDS011;18310;55.586;12.286;2023-06-22T18:12:54;3.85;;;1.70;;
31730;SDS011;18310;55.586;12.286;2023-06-22T18:15:58;3.17;;;1.58;;
31730;SDS011;18310;55.586;12.286;2023-06-22T18:19:05;6.93;;;2.00;;
31730;SDS011;18310;55.586;12.286;2023-06-22T18:22:20;4.78;;;1.88;;
31730;SDS011;18310;55.586;12.286;2023-06-22T18:25:23;4.00;;;1.83;;
31730;SDS011;18310;55.586;12.286;2023-06-22T18:28:28;2.70;;;1.45;;
31730;SDS011;18310;55.586;12.286;2023-06-22T18:31:33;4.22;;;1.60;;
31730;SDS011;18310;55.586;12.286;2023-06-22T18:34:38;3.75;;;1.77;;
31730;SDS011;18310;55.586;12.286;2023-06-22T18:40:51;3.03;;;1.70;;
31730;SDS011;18310;55.586;12.286;2023-06-22T18:43:55;6.38;;;2.17;;
31730;SDS011;18310;55.586;12.286;2023-06-22T18:47:03;8.98;;;2.00;;
31730;SDS011;18310;55.586;12.286;2023-06-22T18:50:09;3.08;;;1.80;;
31730;SDS011;18310;55.586;12.286;2023-06-22T18:53:16;3.42;;;1.83;;
31730;SDS011;18310;55.586;12.286;2023-06-22T18:56:27;2.63;;;1.70;;
31730;SDS011;18310;55.586;12.286;2023-06-22T18:59:46;4.13;;;2.20;;
31730;SDS011;18310;55.586;12.286;2023-06-22T19:03:50;3.47;;;1.77;;
31730;SDS011;18310;55.586;12.286;2023-06-22T19:06:59;3.60;;;2.20;;
31730;SDS011;18310;55.586;12.286;2023-06-22T19:13:28;5.85;;;1.92;;
31730;SDS011;18310;55.586;12.286;2023-06-22T19:16:32;2.70;;;1.42;;
31730;SDS011;18310;55.586;12.286;2023-06-22T19:19:37;5.13;;;2.05;;
31730;SDS011;18310;55.586;12.286;2023-06-22T19:22:44;3.38;;;2.00;;
31730;SDS011;18310;55.586;12.286;2023-06-22T19:26:17;3.03;;;1.25;;
31730;SDS011;18310;55.586;12.286;2023-06-22T19:29:23;4.68;;;1.70;;